createdAt,value
2018-12-09T00:00:54.506Z,2.83
2018-12-09T00:03:24.117Z,3.17
2018-12-09T00:05:54.141Z,2.43
2018-12-09T00:08:23.678Z,7.30
2018-12-09T00:10:53.820Z,3.80
2018-12-09T00:13:23.378Z,3.97
2018-12-09T00:15:53.322Z,3.97
2018-12-09T00:18:23.578Z,4.20
2018-12-09T00:20:53.292Z,5.87
2018-12-09T00:23:23.094Z,4.60
2018-12-09T00:25:53.054Z,5.17
2018-12-09T00:28:23.247Z,3.43
2018-12-09T00:30:53.176Z,4.20
2018-12-09T00:33:23.278Z,4.20
2018-12-09T00:35:53.649Z,5.93
2018-12-09T00:38:23.758Z,3.67
2018-12-09T00:40:56.320Z,3.70
2018-12-09T00:43:28.286Z,2.93
2018-12-09T00:45:58.566Z,2.77
2018-12-09T00:48:31.526Z,4.57
2018-12-09T00:51:01.070Z,4.87
2018-12-09T00:53:31.279Z,3.53
2018-12-09T00:56:01.328Z,9.97
2018-12-09T00:58:30.865Z,5.90
2018-12-09T01:01:01.136Z,4.10
2018-12-09T01:03:30.799Z,4.93
2018-12-09T01:06:02.553Z,5.07
2018-12-09T01:08:32.618Z,5.70
2018-12-09T01:11:04.072Z,3.43
2018-12-09T01:13:33.824Z,5.27
2018-12-09T01:16:03.486Z,2.27
2018-12-09T01:18:33.313Z,5.13
2018-12-09T01:21:03.375Z,3.13
2018-12-09T01:23:33.196Z,3.67
2018-12-09T01:26:03.407Z,3.63
2018-12-09T01:28:33.128Z,5.37
2018-12-09T01:31:03.074Z,4.40
2018-12-09T01:33:33.010Z,3.73
2018-12-09T01:36:02.567Z,4.13
2018-12-09T01:38:32.117Z,4.43
2018-12-09T01:41:04.846Z,3.67
2018-12-09T01:43:34.916Z,4.73
2018-12-09T01:46:04.790Z,3.80
2018-12-09T01:48:34.400Z,3.53
2018-12-09T01:51:04.611Z,8.83
2018-12-09T01:54:17.218Z,3.57
2018-12-09T01:56:49.382Z,6.40
2018-12-09T01:59:16.863Z,3.33
2018-12-09T02:01:46.612Z,8.93
2018-12-09T02:04:16.650Z,5.13
2018-12-09T02:06:46.530Z,4.17
2018-12-09T02:09:16.340Z,6.40
2018-12-09T02:11:48.819Z,4.47
2018-12-09T02:14:18.288Z,3.93
2018-12-09T02:16:48.122Z,5.17
2018-12-09T02:19:22.694Z,6.47
2018-12-09T02:21:52.486Z,5.80
2018-12-09T02:24:22.426Z,6.17
2018-12-09T02:26:52.640Z,5.30
2018-12-09T02:29:22.282Z,6.87
2018-12-09T02:31:53.086Z,6.57
2018-12-09T02:34:22.641Z,7.33
2018-12-09T02:36:52.257Z,8.70
2018-12-09T02:39:22.005Z,7.17
2018-12-09T02:41:52.513Z,7.97
2018-12-09T02:44:22.246Z,4.90
2018-12-09T02:46:52.217Z,5.43
2018-12-09T02:49:22.376Z,3.40
2018-12-09T02:51:52.350Z,5.30
2018-12-09T02:54:22.398Z,5.93
2018-12-09T02:56:52.454Z,6.77
2018-12-09T02:59:22.485Z,4.77
2018-12-09T03:01:51.908Z,5.60
2018-12-09T03:04:22.344Z,8.77
2018-12-09T03:06:52.111Z,5.90
2018-12-09T03:09:21.940Z,1.77
2018-12-09T03:11:51.706Z,2.30
2018-12-09T03:14:21.679Z,4.83
2018-12-09T03:16:51.697Z,5.33
2018-12-09T03:19:21.755Z,5.33
2018-12-09T03:21:51.318Z,4.27
2018-12-09T03:24:21.312Z,3.10
2018-12-09T03:26:51.136Z,4.83
2018-12-09T03:29:20.654Z,8.20
2018-12-09T03:31:53.372Z,3.77
2018-12-09T03:34:22.977Z,3.47
2018-12-09T03:36:52.740Z,6.13
2018-12-09T03:39:22.341Z,4.03
2018-12-09T03:41:52.248Z,4.97
2018-12-09T03:44:22.434Z,3.70
2018-12-09T03:46:52.207Z,3.50
2018-12-09T03:49:22.436Z,3.43
2018-12-09T03:51:52.183Z,3.13
2018-12-09T03:54:22.164Z,2.33
2018-12-09T03:56:52.197Z,4.37
2018-12-09T03:59:22.374Z,5.43
2018-12-09T04:01:52.086Z,5.67
2018-12-09T04:04:22.228Z,7.43
2018-12-09T04:06:52.094Z,5.03
2018-12-09T04:09:21.588Z,6.97
2018-12-09T04:11:51.616Z,8.57
2018-12-09T04:14:21.987Z,7.37
2018-12-09T04:16:51.946Z,11.33
2018-12-09T04:19:21.759Z,7.47
2018-12-09T04:21:51.265Z,11.20
2018-12-09T04:24:20.972Z,7.43
2018-12-09T04:26:51.615Z,7.13
2018-12-09T04:29:21.317Z,6.87
2018-12-09T04:31:51.440Z,5.30
2018-12-09T04:34:21.517Z,5.90
2018-12-09T04:36:51.376Z,5.83
2018-12-09T04:39:21.383Z,7.20
2018-12-09T04:41:50.953Z,5.93
2018-12-09T04:44:24.050Z,6.17
2018-12-09T04:46:54.251Z,9.50
2018-12-09T04:49:24.205Z,5.83
2018-12-09T04:51:59.316Z,10.10
2018-12-09T04:54:29.074Z,6.90
2018-12-09T04:56:59.327Z,7.00
2018-12-09T04:59:28.957Z,7.73
2018-12-09T05:01:59.120Z,7.13
2018-12-09T05:04:29.104Z,11.10
2018-12-09T05:06:58.734Z,9.67
2018-12-09T05:09:28.616Z,9.10
2018-12-09T05:11:58.155Z,6.67
2018-12-09T05:14:28.293Z,13.30
2018-12-09T05:16:58.067Z,12.20
2018-12-09T05:19:28.035Z,8.77
2018-12-09T05:21:57.940Z,11.17
2018-12-09T05:24:27.831Z,13.63
2018-12-09T05:27:00.118Z,12.10
2018-12-09T05:29:30.479Z,15.77
2018-12-09T05:32:00.162Z,12.77
2018-12-09T05:34:29.852Z,12.93
2018-12-09T05:36:59.985Z,14.40
2018-12-09T05:39:29.492Z,14.30
2018-12-09T05:41:59.425Z,13.83
2018-12-09T05:44:29.585Z,11.20
2018-12-09T05:46:59.461Z,13.43
2018-12-09T05:49:29.398Z,17.17
2018-12-09T05:51:58.865Z,18.00
2018-12-09T05:54:28.623Z,10.70
2018-12-09T05:56:58.195Z,11.10
2018-12-09T05:59:28.091Z,12.17
2018-12-09T06:02:35.141Z,13.30
2018-12-09T06:05:05.417Z,14.90
2018-12-09T06:07:35.520Z,11.60
2018-12-09T06:10:06.226Z,9.73
2018-12-09T06:12:36.062Z,10.80
2018-12-09T06:15:05.965Z,11.50
2018-12-09T06:17:35.615Z,12.50
2018-12-09T06:20:05.922Z,11.03
2018-12-09T06:22:38.612Z,8.50
2018-12-09T06:25:05.769Z,10.87
2018-12-09T06:27:35.662Z,13.30
2018-12-09T06:30:06.996Z,4.03
2018-12-09T06:32:36.843Z,5.43
2018-12-09T06:35:06.752Z,7.67
2018-12-09T06:37:36.450Z,3.07
2018-12-09T06:40:06.864Z,6.20
2018-12-09T06:42:36.611Z,3.83
2018-12-09T06:45:07.271Z,2.73
2018-12-09T06:47:37.013Z,3.23
2018-12-09T06:50:09.698Z,3.43
2018-12-09T06:52:39.619Z,3.83
2018-12-09T06:55:10.055Z,2.27
2018-12-09T06:57:39.867Z,2.13
2018-12-09T07:00:09.903Z,2.07
2018-12-09T07:02:41.853Z,0.57
2018-12-09T07:05:10.534Z,0.87
2018-12-09T07:07:40.277Z,1.70
2018-12-09T07:10:10.903Z,1.67
2018-12-09T07:12:40.609Z,1.90
2018-12-09T07:15:10.497Z,0.53
2018-12-09T07:17:40.424Z,3.30
2018-12-09T07:20:10.367Z,0.83
2018-12-09T07:22:40.379Z,1.43
2018-12-09T07:25:10.187Z,0.60
2018-12-09T07:27:39.897Z,2.07
2018-12-09T07:30:11.261Z,1.67
2018-12-09T07:32:41.625Z,2.10
2018-12-09T07:35:11.332Z,2.10
2018-12-09T07:37:41.975Z,2.00
2018-12-09T07:40:12.393Z,4.53
2018-12-09T07:42:42.209Z,1.33
2018-12-09T07:45:12.041Z,1.90
2018-12-09T07:47:42.162Z,2.73
2018-12-09T07:50:12.278Z,1.33
2018-12-09T07:52:42.643Z,2.00
2018-12-09T07:55:12.524Z,3.30
2018-12-09T07:57:42.467Z,0.60
2018-12-09T08:00:14.279Z,3.87
2018-12-09T08:02:45.765Z,4.13
2018-12-09T08:05:15.834Z,1.23
2018-12-09T08:07:45.768Z,0.97
2018-12-09T08:10:15.905Z,0.97
2018-12-09T08:12:45.826Z,2.10
2018-12-09T08:15:15.832Z,1.47
2018-12-09T08:17:45.727Z,1.90
2018-12-09T08:20:15.593Z,0.87
2018-12-09T08:22:45.563Z,0.90
2018-12-09T08:25:15.488Z,1.53
2018-12-09T08:27:45.611Z,2.77
2018-12-09T08:30:15.263Z,1.83
2018-12-09T08:32:44.938Z,1.73
2018-12-09T08:35:15.352Z,2.97
2018-12-09T08:37:44.833Z,2.67
2018-12-09T08:40:15.307Z,1.27
2018-12-09T08:42:47.809Z,2.97
2018-12-09T08:45:18.773Z,3.50
2018-12-09T08:47:48.503Z,2.87
2018-12-09T08:50:18.099Z,2.20
2018-12-09T08:52:47.885Z,1.13
2018-12-09T08:55:17.459Z,2.53
2018-12-09T08:57:47.519Z,1.67
2018-12-09T09:00:17.729Z,1.33
2018-12-09T09:02:47.435Z,1.33
2018-12-09T09:05:17.500Z,2.47
2018-12-09T09:07:50.155Z,1.30
2018-12-09T09:10:21.983Z,1.17
2018-12-09T09:12:50.065Z,2.97
2018-12-09T09:15:22.505Z,1.87
2018-12-09T09:17:52.349Z,2.17
2018-12-09T09:20:21.997Z,1.30
2018-12-09T09:22:54.728Z,1.80
2018-12-09T09:25:24.883Z,3.27
2018-12-09T09:27:54.755Z,1.20
2018-12-09T09:30:24.367Z,1.60
2018-12-09T09:32:54.128Z,1.23
2018-12-09T09:35:23.897Z,1.93
2018-12-09T09:37:53.710Z,1.03
2018-12-09T09:40:23.277Z,2.63
2018-12-09T09:42:53.185Z,1.97
2018-12-09T09:45:23.012Z,0.93
2018-12-09T09:47:52.919Z,5.30
2018-12-09T09:50:22.790Z,2.67
2018-12-09T09:52:53.119Z,1.33
2018-12-09T09:55:22.823Z,1.50
2018-12-09T09:57:54.681Z,2.77
2018-12-09T10:00:26.370Z,1.80
2018-12-09T10:02:56.874Z,1.70
2018-12-09T10:05:27.085Z,1.60
2018-12-09T10:08:00.184Z,1.10
2018-12-09T10:10:31.822Z,2.13
2018-12-09T10:13:02.822Z,1.60
2018-12-09T10:15:32.912Z,7.13
2018-12-09T10:18:02.855Z,1.63
2018-12-09T10:20:32.237Z,4.03
2018-12-09T10:23:02.018Z,2.43
2018-12-09T10:25:31.666Z,2.50
2018-12-09T10:28:01.791Z,4.47
2018-12-09T10:30:31.805Z,2.00
2018-12-09T10:33:01.413Z,3.30
2018-12-09T10:35:31.751Z,2.67
2018-12-09T10:38:01.626Z,2.93
2018-12-09T10:40:32.138Z,1.70
2018-12-09T10:43:02.464Z,3.30
2018-12-09T10:45:32.496Z,5.63
2018-12-09T10:48:02.718Z,4.17
2018-12-09T10:50:32.747Z,4.80
2018-12-09T10:53:02.871Z,3.23
2018-12-09T10:55:32.341Z,3.33
2018-12-09T10:58:02.002Z,3.30
2018-12-09T11:00:49.426Z,4.53
2018-12-09T11:03:19.071Z,6.40
2018-12-09T11:05:49.112Z,7.03
2018-12-09T11:08:18.965Z,4.33
2018-12-09T11:10:48.776Z,4.13
2018-12-09T11:13:18.843Z,5.27
2018-12-09T11:15:48.804Z,6.63
2018-12-09T11:18:19.263Z,6.67
2018-12-09T11:20:48.799Z,3.80
2018-12-09T11:23:18.637Z,5.27
2018-12-09T11:25:48.573Z,5.27
2018-12-09T11:28:18.637Z,3.97
2018-12-09T11:30:50.321Z,7.57
2018-12-09T11:33:18.029Z,6.13
2018-12-09T11:35:50.851Z,7.10
2018-12-09T11:38:20.914Z,7.83
2018-12-09T11:40:50.618Z,6.00
2018-12-09T11:43:21.239Z,5.87
2018-12-09T11:45:51.775Z,7.77
2018-12-09T11:48:21.750Z,8.20
2018-12-09T11:50:53.034Z,6.23
2018-12-09T11:53:24.600Z,4.13
2018-12-09T11:55:54.930Z,7.80
2018-12-09T11:58:24.622Z,6.53
2018-12-09T12:00:57.908Z,5.30
2018-12-09T12:03:28.222Z,9.83
2018-12-09T12:05:59.177Z,9.50
2018-12-09T12:08:28.926Z,8.70
2018-12-09T12:11:01.382Z,9.17
2018-12-09T12:13:31.286Z,7.23
2018-12-09T12:16:01.194Z,6.10
2018-12-09T12:18:30.834Z,10.17
2018-12-09T12:21:03.404Z,10.37
2018-12-09T12:23:33.399Z,5.20
2018-12-09T12:26:04.312Z,7.70
2018-12-09T12:28:34.610Z,6.17
2018-12-09T12:31:04.648Z,8.73
2018-12-09T12:33:34.398Z,4.30
2018-12-09T12:36:04.624Z,7.47
2018-12-09T12:38:34.942Z,8.07
2018-12-09T12:41:05.581Z,10.77
2018-12-09T12:43:36.118Z,8.00
2018-12-09T12:46:07.658Z,9.80
2018-12-09T12:48:38.460Z,7.70
2018-12-09T12:51:09.123Z,8.47
2018-12-09T12:53:39.986Z,11.57
2018-12-09T12:56:10.605Z,8.63
2018-12-09T12:58:46.249Z,7.30
2018-12-09T13:01:16.576Z,8.50
2018-12-09T13:03:46.841Z,9.10
2018-12-09T13:06:17.106Z,10.97
2018-12-09T13:08:47.032Z,8.87
2018-12-09T13:11:17.363Z,10.17
2018-12-09T13:13:47.312Z,12.00
2018-12-09T13:16:19.170Z,14.30
2018-12-09T13:18:51.240Z,8.93
2018-12-09T13:21:21.438Z,8.90
2018-12-09T13:23:52.125Z,7.70
2018-12-09T13:26:22.754Z,7.77
2018-12-09T13:28:54.278Z,10.70
2018-12-09T13:31:23.699Z,8.80
2018-12-09T13:33:55.228Z,7.10
2018-12-09T13:36:25.330Z,12.23
2018-12-09T13:38:59.468Z,8.77
2018-12-09T13:41:30.786Z,9.63
2018-12-09T13:44:00.607Z,7.83
2018-12-09T13:46:35.059Z,8.70
2018-12-09T13:49:05.136Z,12.93
2018-12-09T13:51:34.958Z,7.90
2018-12-09T13:54:05.690Z,12.33
2018-12-09T13:56:44.406Z,8.33
2018-12-09T13:59:15.553Z,3.40
2018-12-09T14:01:47.651Z,4.13
2018-12-09T14:04:17.933Z,6.80
2018-12-09T14:06:48.650Z,6.90
2018-12-09T14:09:19.648Z,6.10
2018-12-09T14:11:49.943Z,5.37
2018-12-09T14:14:19.573Z,7.03
2018-12-09T14:16:53.508Z,7.17
2018-12-09T14:19:23.562Z,6.30
2018-12-09T14:21:54.288Z,6.10
2018-12-09T14:24:27.294Z,8.90
2018-12-09T14:26:54.462Z,5.47
2018-12-09T14:29:34.256Z,5.80
2018-12-09T14:32:04.437Z,4.47
2018-12-09T14:34:34.345Z,13.13
2018-12-09T14:37:04.672Z,6.57
2018-12-09T14:39:36.799Z,10.07
2018-12-09T14:42:07.184Z,6.43
2018-12-09T14:44:38.829Z,8.20
2018-12-09T14:47:10.970Z,6.87
2018-12-09T14:49:41.639Z,5.47
2018-12-09T14:52:11.766Z,5.63
2018-12-09T14:54:42.168Z,11.67
2018-12-09T14:57:12.898Z,5.60
2018-12-09T14:59:43.392Z,8.50
2018-12-09T15:02:13.994Z,4.63
2018-12-09T15:04:44.171Z,8.50
2018-12-09T15:07:14.208Z,3.97
2018-12-09T15:09:44.020Z,4.53
2018-12-09T15:12:14.345Z,9.27
2018-12-09T15:14:45.395Z,4.43
2018-12-09T15:17:15.664Z,8.53
2018-12-09T15:19:45.693Z,2.30
2018-12-09T15:22:16.145Z,9.73
2018-12-09T15:24:47.064Z,4.23
2018-12-09T15:27:17.420Z,5.73
2018-12-09T15:29:47.647Z,4.57
2018-12-09T15:32:17.929Z,7.33
2018-12-09T15:34:47.949Z,6.83
2018-12-09T15:37:18.039Z,5.03
2018-12-09T15:39:50.432Z,6.27
2018-12-09T15:42:20.807Z,7.23
2018-12-09T15:44:50.879Z,8.00
2018-12-09T15:47:20.640Z,7.53
2018-12-09T15:49:51.478Z,8.80
2018-12-09T15:52:23.744Z,9.80
2018-12-09T15:54:53.778Z,6.80
2018-12-09T15:57:24.047Z,5.90
2018-12-09T15:59:57.697Z,5.10
2018-12-09T16:02:28.117Z,13.53
2018-12-09T16:04:58.680Z,8.23
2018-12-09T16:07:28.515Z,10.63
2018-12-09T16:09:59.350Z,6.67
2018-12-09T16:12:29.265Z,12.43
2018-12-09T16:15:01.798Z,10.60
2018-12-09T16:17:35.400Z,7.47
2018-12-09T16:20:05.926Z,7.80
2018-12-09T16:22:35.774Z,8.50
2018-12-09T16:25:06.746Z,11.50
2018-12-09T16:27:36.748Z,6.80
2018-12-09T16:30:08.035Z,8.23
2018-12-09T16:32:37.906Z,6.60
2018-12-09T16:35:09.554Z,8.27
2018-12-09T16:37:39.796Z,4.17
2018-12-09T16:40:09.592Z,8.43
2018-12-09T16:42:39.418Z,15.97
2018-12-09T16:45:09.611Z,7.13
2018-12-09T16:47:39.343Z,13.57
2018-12-09T16:50:09.622Z,10.30
2018-12-09T16:52:44.874Z,9.63
2018-12-09T16:55:15.399Z,7.63
2018-12-09T16:57:45.567Z,11.00
2018-12-09T17:00:15.833Z,14.07
2018-12-09T17:02:45.734Z,14.27
2018-12-09T17:05:16.088Z,12.47
2018-12-09T17:07:49.484Z,9.63
2018-12-09T17:10:19.804Z,13.50
2018-12-09T17:12:50.317Z,13.47
2018-12-09T17:15:20.379Z,10.03
2018-12-09T17:17:51.035Z,13.37
2018-12-09T17:20:21.510Z,11.17
2018-12-09T17:22:53.295Z,8.30
2018-12-09T17:25:23.698Z,14.60
2018-12-09T17:27:53.879Z,17.97
2018-12-09T17:30:24.865Z,15.63
2018-12-09T17:32:54.994Z,14.47
2018-12-09T17:35:25.229Z,11.43
2018-12-09T17:37:55.844Z,18.17
2018-12-09T17:40:26.578Z,13.43
2018-12-09T17:42:56.805Z,14.90
2018-12-09T17:45:27.841Z,14.43
2018-12-09T17:47:58.686Z,10.83
2018-12-09T17:50:28.596Z,18.53
2018-12-09T17:52:58.756Z,11.47
2018-12-09T17:55:29.046Z,12.03
2018-12-09T17:57:58.754Z,16.00
2018-12-09T18:00:29.932Z,12.93
2018-12-09T18:03:00.739Z,11.60
2018-12-09T18:05:31.362Z,17.33
2018-12-09T18:08:02.289Z,9.93
2018-12-09T18:10:32.226Z,21.00
2018-12-09T18:13:03.343Z,22.30
2018-12-09T18:15:33.180Z,13.83
2018-12-09T18:18:03.705Z,12.67
2018-12-09T18:20:34.111Z,16.67
2018-12-09T18:23:04.262Z,15.53
2018-12-09T18:25:34.097Z,11.23
2018-12-09T18:28:04.346Z,20.60
2018-12-09T18:30:34.922Z,18.30
2018-12-09T18:33:05.192Z,12.23
2018-12-09T18:35:37.679Z,9.97
2018-12-09T18:38:05.950Z,22.33
2018-12-09T18:40:36.895Z,14.33
2018-12-09T18:43:08.091Z,17.77
2018-12-09T18:45:38.104Z,19.47
2018-12-09T18:48:08.539Z,14.07
2018-12-09T18:50:39.176Z,16.03
2018-12-09T18:53:08.987Z,16.47
2018-12-09T18:55:39.918Z,18.27
2018-12-09T18:58:09.601Z,16.77
2018-12-09T19:00:40.207Z,12.90
2018-12-09T19:03:10.314Z,15.27
2018-12-09T19:05:40.811Z,12.73
2018-12-09T19:08:10.925Z,14.93
2018-12-09T19:10:41.253Z,16.40
2018-12-09T19:13:11.172Z,14.03
2018-12-09T19:15:40.932Z,19.37
2018-12-09T19:18:11.821Z,10.27
2018-12-09T19:20:42.006Z,13.73
2018-12-09T19:23:11.997Z,9.47
2018-12-09T19:25:42.030Z,13.30
2018-12-09T19:28:11.989Z,9.40
2018-12-09T19:30:48.195Z,16.20
2018-12-09T19:33:11.864Z,11.83
2018-12-09T19:35:41.983Z,13.63
2018-12-09T19:38:11.955Z,15.70
2018-12-09T19:40:42.135Z,11.03
2018-12-09T19:43:13.269Z,13.60
2018-12-09T19:45:42.334Z,14.93
2018-12-09T19:48:12.328Z,11.53
2018-12-09T19:50:43.093Z,19.10
2018-12-09T19:53:13.505Z,14.30
2018-12-09T19:55:43.413Z,12.37
2018-12-09T19:58:13.573Z,23.07
2018-12-09T20:00:43.335Z,21.97
2018-12-09T20:03:13.425Z,15.60
2018-12-09T20:05:43.294Z,18.47
2018-12-09T20:08:13.157Z,21.80
2018-12-09T20:10:47.221Z,13.60
2018-12-09T20:13:17.291Z,28.03
2018-12-09T20:15:47.730Z,16.37
2018-12-09T20:18:17.623Z,13.40
2018-12-09T20:20:47.374Z,10.53
2018-12-09T20:23:17.682Z,10.47
2018-12-09T20:25:47.438Z,19.93
2018-12-09T20:28:17.689Z,17.40
2018-12-09T20:30:49.184Z,10.03
2018-12-09T20:33:18.899Z,12.77
2018-12-09T20:35:48.816Z,10.53
2018-12-09T20:38:20.671Z,16.53
2018-12-09T20:40:48.504Z,14.73
2018-12-09T20:43:19.731Z,12.87
2018-12-09T20:45:49.515Z,19.43
2018-12-09T20:48:19.579Z,18.27
2018-12-09T20:50:50.561Z,11.53
2018-12-09T20:53:21.541Z,16.27
2018-12-09T20:55:52.598Z,11.33
2018-12-09T20:58:23.962Z,21.47
2018-12-09T21:00:54.482Z,9.77
2018-12-09T21:03:24.239Z,12.10
2018-12-09T21:05:55.188Z,12.33
2018-12-09T21:08:25.043Z,13.43
2018-12-09T21:10:55.290Z,10.50
2018-12-09T21:13:25.348Z,18.33
2018-12-09T21:15:56.090Z,15.20
2018-12-09T21:18:25.692Z,16.90
2018-12-09T21:20:56.020Z,14.57
2018-12-09T21:23:26.054Z,10.50
2018-12-09T21:25:55.619Z,18.57
2018-12-09T21:28:25.979Z,20.27
2018-12-09T21:30:56.451Z,16.43
2018-12-09T21:33:26.484Z,15.13
2018-12-09T21:35:56.296Z,17.30
2018-12-09T21:38:26.203Z,11.20
2018-12-09T21:40:55.707Z,17.33
2018-12-09T21:43:25.558Z,14.87
2018-12-09T21:45:55.404Z,12.00
2018-12-09T21:48:25.143Z,11.70
2018-12-09T21:50:54.907Z,20.43
2018-12-09T21:53:24.994Z,18.30
2018-12-09T21:55:54.624Z,9.57
2018-12-09T21:58:24.528Z,6.10
2018-12-09T22:00:54.346Z,16.40
2018-12-09T22:03:24.306Z,12.63
2018-12-09T22:05:54.511Z,10.17
2018-12-09T22:08:24.376Z,9.53
2018-12-09T22:10:54.576Z,12.33
2018-12-09T22:13:24.551Z,17.80
2018-12-09T22:15:54.168Z,13.97
2018-12-09T22:18:23.766Z,12.80
2018-12-09T22:20:53.469Z,12.63
2018-12-09T22:23:23.406Z,13.77
2018-12-09T22:25:53.103Z,16.33
2018-12-09T22:28:23.088Z,9.20
2018-12-09T22:30:52.996Z,12.77
2018-12-09T22:33:23.005Z,16.07
2018-12-09T22:35:52.711Z,9.20
2018-12-09T22:38:22.462Z,9.33
2018-12-09T22:40:52.576Z,11.47
2018-12-09T22:43:22.840Z,10.50
2018-12-09T22:45:52.974Z,5.30
2018-12-09T22:48:22.992Z,15.07
2018-12-09T22:50:52.764Z,9.73
2018-12-09T22:53:22.427Z,11.10
2018-12-09T22:55:52.102Z,8.67
2018-12-09T22:58:21.948Z,17.20
2018-12-09T23:01:09.636Z,11.20
2018-12-09T23:03:39.752Z,9.90
2018-12-09T23:06:09.517Z,11.67
2018-12-09T23:08:39.109Z,11.70
2018-12-09T23:11:08.889Z,13.47
2018-12-09T23:13:41.680Z,11.23
2018-12-09T23:16:11.595Z,12.27
2018-12-09T23:18:41.153Z,12.67
2018-12-09T23:21:11.119Z,5.90
2018-12-09T23:23:41.290Z,13.60
2018-12-09T23:26:11.181Z,11.73
2018-12-09T23:28:41.003Z,14.50
2018-12-09T23:31:10.977Z,12.37
2018-12-09T23:33:40.526Z,11.67
2018-12-09T23:36:10.230Z,12.73
2018-12-09T23:38:42.583Z,13.67
2018-12-09T23:41:10.011Z,8.97
2018-12-09T23:43:40.331Z,8.50
2018-12-09T23:46:13.281Z,10.60
2018-12-09T23:48:43.295Z,11.43
2018-12-09T23:51:13.269Z,13.50
2018-12-09T23:53:43.426Z,15.23
2018-12-09T23:56:13.203Z,13.90
2018-12-09T23:58:43.030Z,12.07
